Time;durP1;ratioP1;P1;durP2;ratioP2;P2;SDS_P1;SDS_P2;PMS_P1;PMS_P2;Temp;Humidity;BMP_temperature;BMP_pressure;BME280_temperature;BME280_humidity;BME280_pressure;Samples;Min_cycle;Max_cycle;Signal;HPM_P1;HPM_P2
2024/02/13 00:00:53;;;;;;;0.10;0.10;;;;;;;;;;4990886;28;20034;-94
2024/02/13 00:03:19;;;;;;;0.10;0.10;;;;;;;;;;4992545;28;20037;-93
2024/02/13 00:05:45;;;;;;;0.10;0.10;;;;;;;;;;5006953;28;20117;-93
2024/02/13 00:08:11;;;;;;;0.00;0.00;;;;;;;;;;5012196;28;20118;-93
2024/02/13 00:10:37;;;;;;;0.00;0.00;;;;;;;;;;5007515;28;20296;-93
2024/02/13 00:13:04;;;;;;;0.10;0.10;;;;;;;;;;4990217;28;20149;-93
2024/02/13 00:15:30;;;;;;;0.10;0.10;;;;;;;;;;4992003;28;20082;-93
2024/02/13 00:17:56;;;;;;;0.10;0.10;;;;;;;;;;5008226;28;20072;-93
2024/02/13 00:20:22;;;;;;;0.10;0.10;;;;;;;;;;4993505;28;20058;-93
2024/02/13 00:22:48;;;;;;;0.03;0.03;;;;;;;;;;4988457;28;20038;-93
2024/02/13 00:25:15;;;;;;;0.10;0.10;;;;;;;;;;5004375;28;20386;-93
2024/02/13 00:27:42;;;;;;;0.10;0.10;;;;;;;;;;4990531;28;20058;-92
2024/02/13 00:30:09;;;;;;;0.10;0.10;;;;;;;;;;5004496;28;20038;-94
2024/02/13 00:32:37;;;;;;;0.10;0.10;;;;;;;;;;5011963;28;20468;-94
2024/02/13 00:35:08;;;;;;;0.10;0.10;;;6.20;99.90;;;;;;4995697;28;20034;-93
2024/02/13 00:37:36;;;;;;;0.10;0.10;;;;;;;;;;5005941;28;20375;-93
2024/02/13 00:40:05;;;;;;;0.10;0.10;;;;;;;;;;5000221;28;20030;-93
2024/02/13 00:42:31;;;;;;;0.10;0.10;;;;;;;;;;4999586;28;20038;-93
2024/02/13 00:45:00;;;;;;;0.10;0.10;;;;;;;;;;5005984;28;20320;-94
2024/02/13 00:47:28;;;;;;;0.10;0.10;;;;;;;;;;4994029;28;20046;-94
2024/02/13 00:49:54;;;;;;;0.10;0.10;;;;;;;;;;4991547;28;20477;-93
2024/02/13 00:52:20;;;;;;;0.10;0.10;;;;;;;;;;4992087;28;20029;-93
2024/02/13 00:54:46;;;;;;;0.00;0.00;;;;;;;;;;4994303;28;20036;-93
2024/02/13 00:57:13;;;;;;;0.10;0.10;;;;;;;;;;4995478;28;20294;-93
2024/02/13 00:59:40;;;;;;;0.10;0.10;;;;;;;;;;4993983;28;20026;-93
2024/02/13 01:02:06;;;;;;;0.10;0.10;;;;;;;;;;5006145;28;20038;-93
2024/02/13 01:04:32;;;;;;;0.10;0.10;;;;;;;;;;5006888;28;20133;-93
2024/02/13 01:06:58;;;;;;;0.10;0.10;;;;;;;;;;4993062;28;20030;-92
2024/02/13 01:09:27;;;;;;;0.10;0.10;;;;;;;;;;5000465;28;20525;-93
2024/02/13 01:11:55;;;;;;;0.10;0.10;;;;;;;;;;4987401;28;20030;-94
2024/02/13 01:14:21;;;;;;;0.10;0.10;;;;;;;;;;4997076;28;20503;-94
2024/02/13 01:16:47;;;;;;;0.10;0.10;;;;;;;;;;4994132;28;20026;-93
2024/02/13 01:19:13;;;;;;;0.10;0.10;;;;;;;;;;4988019;28;20084;-93
2024/02/13 01:21:39;;;;;;;0.10;0.10;;;;;;;;;;5006443;28;20030;-93
2024/02/13 01:24:05;;;;;;;0.10;0.10;;;;;;;;;;5012916;28;20546;-93
2024/02/13 01:26:31;;;;;;;0.10;0.10;;;;;;;;;;5006268;28;20038;-93
2024/02/13 01:28:57;;;;;;;0.10;0.10;;;;;;;;;;4993317;28;20080;-94
2024/02/13 01:31:23;;;;;;;0.10;0.10;;;;;;;;;;4994667;28;20033;-93
2024/02/13 01:33:49;;;;;;;0.10;0.10;;;;;;;;;;4987563;28;20030;-91
2024/02/13 01:36:21;;;;;;;0.10;0.10;;;;;;;;;;5006633;28;20129;-93
2024/02/13 01:38:48;;;;;;;0.10;0.10;;;;;;;;;;4989650;28;20026;-93
2024/02/13 01:41:16;;;;;;;0.10;0.10;;;;;;;;;;5005510;28;20062;-93
2024/02/13 01:43:43;;;;;;;0.10;0.10;;;;;;;;;;4991523;28;20521;-93
2024/02/13 01:46:11;;;;;;;0.10;0.10;;;;;;;;;;4991405;28;20058;-94
2024/02/13 01:48:38;;;;;;;0.10;0.10;;;;;;;;;;4987617;28;20049;-93
2024/02/13 01:51:04;;;;;;;0.10;0.10;;;;;;;;;;5002935;28;20030;-93
2024/02/13 01:53:31;;;;;;;0.10;0.10;;;;;;;;;;4988221;28;20089;-94
2024/02/13 01:55:58;;;;;;;0.10;0.10;;;5.70;99.90;;;;;;4989059;28;20026;-92
2024/02/13 01:58:25;;;;;;;0.10;0.10;;;;;;;;;;4986420;28;20140;-94
2024/02/13 02:00:58;;;;;;;0.10;0.10;;;;;;;;;;5008064;28;20045;-92
2024/02/13 02:03:25;;;;;;;0.10;0.10;;;;;;;;;;4989653;28;20456;-93
2024/02/13 02:05:51;;;;;;;0.10;0.10;;;5.80;99.90;;;;;;5004409;28;20034;-93
2024/02/13 02:08:18;;;;;;;0.10;0.10;;;5.80;99.90;;;;;;4986510;28;20036;-93
2024/02/13 02:10:44;;;;;;;0.10;0.10;;;;;;;;;;4986241;28;20457;-93
2024/02/13 02:13:15;;;;;;;0.10;0.10;;;;;;;;;;4983443;28;20501;-94
2024/02/13 02:15:41;;;;;;;0.10;0.10;;;;;;;;;;4986956;28;20032;-93
2024/02/13 02:18:09;;;;;;;0.10;0.10;;;;;;;;;;4988971;28;20030;-93
2024/02/13 02:20:36;;;;;;;0.10;0.10;;;;;;;;;;5003636;28;20057;-94
2024/02/13 02:23:05;;;;;;;0.10;0.10;;;;;;;;;;5004026;28;20041;-92
2024/02/13 02:25:31;;;;;;;0.10;0.10;;;;;;;;;;4988301;28;20026;-94
2024/02/13 02:27:57;;;;;;;0.10;0.10;;;;;;;;;;4989603;28;20296;-93
2024/02/13 02:30:23;;;;;;;0.05;0.05;;;;;;;;;;5010235;28;20034;-94
2024/02/13 02:32:49;;;;;;;0.10;0.10;;;;;;;;;;5010913;28;20034;-93
2024/02/13 02:35:18;;;;;;;0.10;0.10;;;;;;;;;;4989800;28;20041;-94
2024/02/13 02:37:47;;;;;;;0.05;0.05;;;;;;;;;;4993931;28;20050;-92
2024/02/13 02:40:14;;;;;;;0.10;0.10;;;;;;;;;;5001810;28;20461;-93
2024/02/13 02:42:40;;;;;;;0.08;0.08;;;;;;;;;;5009608;28;20038;-91
2024/02/13 02:45:06;;;;;;;0.10;0.10;;;;;;;;;;5007932;28;20131;-93
2024/02/13 02:47:34;;;;;;;0.10;0.10;;;;;;;;;;4998152;28;20049;-92
2024/02/13 02:50:00;;;;;;;0.10;0.10;;;;;;;;;;4988731;28;20034;-93
2024/02/13 02:52:26;;;;;;;0.10;0.10;;;;;;;;;;4987648;28;20084;-93
2024/02/13 02:54:52;;;;;;;0.10;0.10;;;;;;;;;;5005359;28;20022;-93
2024/02/13 02:57:18;;;;;;;0.10;0.10;;;;;;;;;;4988120;28;20034;-93
2024/02/13 02:59:45;;;;;;;0.10;0.10;;;;;;;;;;5007262;28;20034;-93
2024/02/13 03:02:11;;;;;;;0.10;0.10;;;;;;;;;;5003006;28;20511;-92
2024/02/13 03:04:37;;;;;;;0.10;0.10;;;;;;;;;;4986920;28;20042;-92
2024/02/13 03:07:03;;;;;;;0.10;0.10;;;;;;;;;;4988499;28;20038;-93
2024/02/13 03:09:30;;;;;;;0.10;0.10;;;;;;;;;;4989745;28;20026;-93
2024/02/13 03:11:56;;;;;;;0.10;0.10;;;;;;;;;;5011417;28;20057;-92
2024/02/13 03:14:22;;;;;;;0.10;0.10;;;;;;;;;;5010250;28;20033;-92
2024/02/13 03:16:50;;;;;;;0.10;0.10;;;;;;;;;;5001989;28;20030;-93
2024/02/13 03:19:16;;;;;;;0.08;0.08;;;;;;;;;;4987790;28;20482;-93
2024/02/13 03:21:42;;;;;;;0.10;0.10;;;;;;;;;;5006314;28;20041;-93
2024/02/13 03:24:08;;;;;;;0.10;0.10;;;;;;;;;;5006622;28;20044;-92
2024/02/13 03:26:34;;;;;;;0.10;0.10;;;;;;;;;;5008969;28;20042;-93
2024/02/13 03:29:02;;;;;;;0.10;0.10;;;;;;;;;;5008252;28;20114;-93
2024/02/13 03:31:28;;;;;;;0.10;0.10;;;;;;;;;;5010855;28;20038;-92
2024/02/13 03:33:54;;;;;;;0.10;0.10;;;;;;;;;;4995158;28;20084;-93
2024/02/13 03:36:20;;;;;;;0.00;0.00;;;;;;;;;;4990157;28;20026;-93
2024/02/13 03:38:53;;;;;;;0.10;0.10;;;;;;;;;;5009307;28;20035;-93
2024/02/13 03:41:18;;;;;;;0.10;0.10;;;;;;;;;;4990846;28;20485;-93
2024/02/13 03:43:46;;;;;;;0.10;0.10;;;;;;;;;;5009046;28;20030;-92
2024/02/13 03:46:12;;;;;;;0.10;0.10;;;;;;;;;;5008346;28;20386;-93
2024/02/13 03:48:38;;;;;;;0.10;0.10;;;;;;;;;;5010294;28;20040;-92
2024/02/13 03:51:04;;;;;;;0.10;0.10;;;;;;;;;;4993721;28;20121;-92
2024/02/13 03:53:30;;;;;;;0.10;0.10;;;;;;;;;;5005974;28;20053;-92
2024/02/13 03:55:56;;;;;;;0.10;0.10;;;;;;;;;;5031739;28;20066;-94
2024/02/13 03:58:22;;;;;;;0.10;0.10;;;;;;;;;;5017847;28;20034;-93
2024/02/13 04:00:48;;;;;;;0.05;0.05;;;;;;;;;;5007356;28;20066;-92
2024/02/13 04:03:14;;;;;;;0.10;0.10;;;;;;;;;;4991867;28;20072;-93
2024/02/13 04:05:41;;;;;;;0.10;0.10;;;;;;;;;;5004649;28;20027;-92
2024/02/13 04:08:07;;;;;;;0.10;0.10;;;;;;;;;;5006711;28;20388;-94
2024/02/13 04:10:33;;;;;;;0.10;0.10;;;;;;;;;;5007295;28;20037;-94
2024/02/13 04:12:59;;;;;;;0.00;0.00;;;;;;;;;;5006901;28;20202;-93
2024/02/13 04:15:25;;;;;;;0.10;0.10;;;;;;;;;;4991815;28;20043;-91
2024/02/13 04:17:51;;;;;;;0.10;0.10;;;;;;;;;;4988736;28;20054;-93
2024/02/13 04:20:17;;;;;;;0.10;0.10;;;;;;;;;;4987892;28;20093;-94
2024/02/13 04:22:44;;;;;;;0.10;0.10;;;;;;;;;;4988457;28;20516;-93
2024/02/13 04:25:13;;;;;;;0.10;0.10;;;;;;;;;;5005916;28;20072;-93
2024/02/13 04:27:39;;;;;;;0.10;0.10;;;;;;;;;;5004576;28;20413;-93
2024/02/13 04:30:08;;;;;;;0.10;0.10;;;;;;;;;;5006496;28;20041;-93
2024/02/13 04:32:37;;;;;;;0.10;0.10;;;;;;;;;;4992047;28;20030;-94
2024/02/13 04:35:03;;;;;;;0.10;0.10;;;;;;;;;;4990286;28;20029;-92
2024/02/13 04:37:29;;;;;;;0.10;0.10;;;;;;;;;;4988226;28;20511;-93
2024/02/13 04:39:55;;;;;;;0.10;0.10;;;;;;;;;;4987349;28;20109;-92
2024/02/13 04:42:31;;;;;;;0.10;0.10;;;;;;;;;;4989289;28;20030;-92
2024/02/13 04:44:59;;;;;;;0.10;0.10;;;;;;;;;;4990651;28;20038;-94
2024/02/13 04:47:27;;;;;;;0.00;0.00;;;;;;;;;;4991836;28;20404;-92
2024/02/13 04:49:57;;;;;;;0.10;0.10;;;;;;;;;;5004391;28;20073;-93
2024/02/13 04:52:23;;;;;;;0.10;0.10;;;;;;;;;;5009885;28;20042;-92
2024/02/13 04:54:49;;;;;;;0.10;0.10;;;;;;;;;;5007424;28;20111;-94
2024/02/13 04:57:15;;;;;;;0.10;0.10;;;;;;;;;;4987023;28;20481;-93
2024/02/13 04:59:47;;;;;;;0.10;0.10;;;;;;;;;;5007544;28;20046;-93
2024/02/13 05:02:14;;;;;;;0.10;0.10;;;;;;;;;;4990465;28;20184;-93
2024/02/13 05:07:26;;;;;;;0.10;0.10;;;;;;;;;;4994129;28;20414;-93
2024/02/13 05:09:53;;;;;;;0.10;0.10;;;;;;;;;;5004187;28;20144;-92
2024/02/13 05:12:19;;;;;;;0.10;0.10;;;;;;;;;;4990761;28;20030;-92
2024/02/13 05:14:45;;;;;;;0.10;0.10;;;;;;;;;;5008062;28;20030;-94
2024/02/13 05:17:11;;;;;;;0.10;0.10;;;;;;;;;;4988500;28;20037;-92
2024/02/13 05:19:38;;;;;;;0.10;0.10;;;;;;;;;;5009573;28;20034;-91
2024/02/13 05:22:05;;;;;;;0.10;0.10;;;;;;;;;;4993200;28;20030;-92
2024/02/13 05:24:31;;;;;;;0.10;0.10;;;;;;;;;;5006855;28;20113;-93
2024/02/13 05:26:57;;;;;;;0.10;0.10;;;;;;;;;;4994138;28;20766;-92
2024/02/13 05:29:24;;;;;;;0.10;0.10;;;;;;;;;;4988537;28;20073;-93
2024/02/13 05:31:51;;;;;;;0.10;0.10;;;;;;;;;;5005839;28;20031;-93
2024/02/13 05:34:17;;;;;;;0.10;0.10;;;;;;;;;;4982349;28;20387;-93
2024/02/13 05:36:43;;;;;;;0.10;0.10;;;;;;;;;;4986682;28;20033;-91
2024/02/13 05:39:09;;;;;;;0.10;0.10;;;;;;;;;;4987286;28;20049;-93
2024/02/13 05:41:35;;;;;;;0.10;0.10;;;;;;;;;;5004918;28;20514;-91
2024/02/13 05:44:03;;;;;;;0.10;0.10;;;;;;;;;;5007150;28;20198;-93
2024/02/13 05:46:29;;;;;;;0.10;0.10;;;;;;;;;;4986148;28;20033;-92
2024/02/13 05:48:58;;;;;;;0.10;0.10;;;;;;;;;;4988592;28;20060;-92
2024/02/13 05:51:24;;;;;;;0.10;0.10;;;;;;;;;;4994215;28;20432;-93
2024/02/13 05:53:50;;;;;;;0.00;0.00;;;;;;;;;;4995943;28;20036;-92
2024/02/13 05:56:17;;;;;;;0.00;0.00;;;;;;;;;;5008988;28;20374;-93
2024/02/13 05:58:43;;;;;;;0.10;0.10;;;;;;;;;;5004449;28;20114;-93
2024/02/13 06:01:13;;;;;;;0.10;0.10;;;;;;;;;;5006157;28;20160;-93
2024/02/13 07:08:17;;;;;;;0.10;0.10;;;;;;;;;;4990580;28;20078;-91
2024/02/13 07:10:43;;;;;;;0.10;0.10;;;;;;;;;;4993402;28;20060;-92
2024/02/13 07:13:09;;;;;;;0.10;0.10;;;;;;;;;;4979590;28;20070;-91
2024/02/13 07:15:36;;;;;;;0.10;0.10;;;;;;;;;;4990769;28;20062;-92
2024/02/13 07:18:03;;;;;;;0.10;0.10;;;;;;;;;;4973941;28;20052;-92
2024/02/13 12:22:25;;;;;;;0.10;0.10;;;9.10;99.90;;;;;;4989895;28;20050;-94
2024/02/13 12:24:51;;;;;;;0.03;0.03;;;;;;;;;;5004167;28;20058;-91
2024/02/13 12:27:18;;;;;;;0.00;0.00;;;;;;;;;;4973298;28;20074;-92
2024/02/13 12:29:44;;;;;;;0.00;0.00;;;;;;;;;;4988185;28;20034;-93
2024/02/13 12:32:16;;;;;;;0.00;0.00;;;9.00;99.90;;;;;;4974102;28;20077;-92
2024/02/13 12:34:42;;;;;;;0.03;0.03;;;;;;;;;;4972093;28;20014;-93
2024/02/13 12:37:09;;;;;;;0.10;0.10;;;;;;;;;;4967450;28;20439;-93
2024/02/13 12:39:40;;;;;;;0.00;0.00;;;;;;;;;;4972296;28;20026;-93
2024/02/13 12:42:10;;;;;;;0.00;0.00;;;;;;;;;;4988493;28;20457;-92
2024/02/13 12:44:38;;;;;;;0.00;0.00;;;9.20;99.90;;;;;;4986455;28;20039;-93
2024/02/13 12:47:07;;;;;;;0.00;0.00;;;;;;;;;;4970457;28;20034;-93
2024/02/13 12:49:33;;;;;;;0.00;0.00;;;;;;;;;;4971347;28;20033;-92
2024/02/13 12:51:59;;;;;;;0.00;0.00;;;;;;;;;;4985850;28;20049;-93
2024/02/13 12:54:25;;;;;;;0.00;0.00;;;;;;;;;;4968195;28;20114;-94
2024/02/13 12:56:52;;;;;;;0.00;0.00;;;;;;;;;;4984798;28;20500;-94
2024/02/13 12:59:18;;;;;;;0.00;0.00;;;;;;;;;;4986154;28;20023;-94
2024/02/13 13:01:44;;;;;;;0.00;0.00;;;;;;;;;;4971646;28;20118;-93
2024/02/13 13:04:15;;;;;;;0.00;0.00;;;9.90;99.90;;;;;;4972213;28;20027;-93
2024/02/13 13:06:44;;;;;;;0.00;0.00;;;;;;;;;;4969973;28;20037;-94
2024/02/13 13:09:10;;;;;;;0.00;0.00;;;;;;;;;;4983429;28;20490;-94
2024/02/13 13:11:36;;;;;;;0.00;0.00;;;;;;;;;;4982052;28;20035;-94
2024/02/13 13:14:02;;;;;;;0.05;0.05;;;;;;;;;;4986279;28;20099;-92
2024/02/13 13:16:30;;;;;;;0.00;0.00;;;;;;;;;;4981075;28;20731;-93
2024/02/13 13:18:59;;;;;;;0.00;0.00;;;;;;;;;;4960780;28;20215;-92
2024/02/13 13:21:25;;;;;;;0.10;0.10;;;;;;;;;;4967027;28;20030;-93
2024/02/13 13:23:57;;;;;;;0.00;0.00;;;;;;;;;;4983687;28;20310;-93
2024/02/13 13:29:21;;;;;;;0.00;0.00;;;;;;;;;;4977652;28;20054;-93
2024/02/13 13:31:48;;;;;;;0.00;0.00;;;;;;;;;;4990256;28;20042;-94
2024/02/13 13:34:25;;;;;;;0.00;0.00;;;;;;;;;;4993279;28;20031;-93
2024/02/13 13:36:52;;;;;;;0.00;0.00;;;9.90;99.90;;;;;;4986358;28;20031;-91
2024/02/13 13:39:20;;;;;;;0.00;0.00;;;;;;;;;;4972088;28;20031;-92
2024/02/13 13:41:49;;;;;;;0.00;0.00;;;;;;;;;;4989106;28;20113;-91
2024/02/13 13:44:15;;;;;;;0.00;0.00;;;;;;;;;;4970328;28;20030;-93
2024/02/13 13:46:41;;;;;;;0.00;0.00;;;;;;;;;;4973340;28;20034;-92
2024/02/13 13:49:11;;;;;;;0.00;0.00;;;;;;;;;;4966887;28;20042;-93
2024/02/13 13:51:40;;;;;;;0.10;0.10;;;;;;;;;;4968470;28;20401;-92
2024/02/13 13:54:06;;;;;;;0.00;0.00;;;;;;;;;;4988671;28;20038;-92
2024/02/13 13:56:35;;;;;;;0.00;0.00;;;;;;;;;;4974153;28;20033;-93
2024/02/13 13:59:07;;;;;;;0.00;0.00;;;;;;;;;;4987846;28;20505;-93
2024/02/13 14:01:33;;;;;;;0.00;0.00;;;;;;;;;;4975772;28;20094;-93
2024/02/13 14:03:59;;;;;;;0.00;0.00;;;;;;;;;;4988548;28;20027;-93
2024/02/13 14:06:25;;;;;;;0.00;0.00;;;;;;;;;;4976056;28;20246;-93
2024/02/13 14:08:51;;;;;;;0.00;0.00;;;;;;;;;;4987780;28;20134;-92
2024/02/13 14:11:17;;;;;;;0.00;0.00;;;;;;;;;;4975392;28;20518;-94
2024/02/13 14:13:44;;;;;;;0.00;0.00;;;;;;;;;;4973050;28;20038;-92
2024/02/13 14:16:10;;;;;;;0.00;0.00;;;;;;;;;;4987794;28;20093;-94
2024/02/13 14:18:41;;;;;;;0.00;0.00;;;;;;;;;;4975028;28;20336;-92
2024/02/13 14:21:07;;;;;;;0.00;0.00;;;;;;;;;;4988711;28;20453;-93
2024/02/13 14:23:33;;;;;;;0.00;0.00;;;;;;;;;;4984268;28;20109;-93
2024/02/13 14:25:59;;;;;;;0.10;0.10;;;;;;;;;;4967153;28;20042;-93
2024/02/13 14:28:25;;;;;;;0.00;0.00;;;;;;;;;;4967686;28;20026;-91
2024/02/13 14:30:52;;;;;;;0.00;0.00;;;;;;;;;;4968567;28;20199;-93
2024/02/13 14:33:18;;;;;;;0.00;0.00;;;;;;;;;;4975041;28;20037;-94
2024/02/13 14:35:46;;;;;;;0.00;0.00;;;;;;;;;;4979184;28;20053;-93
2024/02/13 14:38:14;;;;;;;0.00;0.00;;;;;;;;;;4970612;28;20471;-94
2024/02/13 14:40:42;;;;;;;0.00;0.00;;;;;;;;;;4979929;28;20055;-93
2024/02/13 14:43:10;;;;;;;0.00;0.00;;;;;;;;;;4979248;28;20038;-93
2024/02/13 14:45:38;;;;;;;0.00;0.00;;;;;;;;;;4968426;28;20327;-93
2024/02/13 14:48:09;;;;;;;0.00;0.00;;;;;;;;;;4968835;28;20035;-93
2024/02/13 14:50:37;;;;;;;0.00;0.00;;;;;;;;;;4981271;28;20039;-92
2024/02/13 14:53:06;;;;;;;0.00;0.00;;;;;;;;;;4969793;28;20480;-93
2024/02/13 14:55:33;;;;;;;0.00;0.00;;;;;;;;;;4966176;28;20192;-93
2024/02/13 14:57:59;;;;;;;0.00;0.00;;;;;;;;;;4962481;28;20030;-93
2024/02/13 15:00:26;;;;;;;0.00;0.00;;;;;;;;;;4980212;28;20501;-93
2024/02/13 15:02:52;;;;;;;0.00;0.00;;;;;;;;;;4984011;28;20062;-93
2024/02/13 15:05:21;;;;;;;0.00;0.00;;;;;;;;;;4983317;28;20146;-93
2024/02/13 15:07:52;;;;;;;0.00;0.00;;;;;;;;;;4981966;28;20031;-92
2024/02/13 15:10:18;;;;;;;0.00;0.00;;;;;;;;;;4984885;28;20029;-94
2024/02/13 15:12:44;;;;;;;0.00;0.00;;;;;;;;;;4979929;28;20043;-93
2024/02/13 15:15:15;;;;;;;0.00;0.00;;;;;;;;;;4979340;28;20392;-91
2024/02/13 15:17:42;;;;;;;0.00;0.00;;;;;;;;;;4982239;28;20035;-93
2024/02/13 15:20:08;;;;;;;0.05;0.05;;;;;;;;;;4983994;28;20054;-93
2024/02/13 15:22:35;;;;;;;0.00;0.00;;;;;;;;;;4978610;28;20038;-93
2024/02/13 15:25:08;;;;;;;0.00;0.00;;;;;;;;;;4967455;28;20344;-92
2024/02/13 15:27:35;;;;;;;0.00;0.00;;;;;;;;;;4986417;28;20035;-93
2024/02/13 15:30:04;;;;;;;0.00;0.00;;;;;;;;;;4968379;28;20039;-91
2024/02/13 15:32:30;;;;;;;0.00;0.00;;;;;;;;;;4974126;28;20034;-92
2024/02/13 15:34:58;;;;;;;0.10;0.10;;;;;;;;;;4967204;28;20042;-91
2024/02/13 15:48:25;;;;;;;0.00;0.00;;;;;;;;;;4973640;28;20560;-94
2024/02/13 15:50:52;;;;;;;0.00;0.00;;;;;;;;;;4988511;28;20038;-93
2024/02/13 15:53:20;;;;;;;0.00;0.00;;;;;;;;;;4987231;28;20126;-93
2024/02/13 15:55:47;;;;;;;0.00;0.00;;;;;;;;;;4985909;28;20023;-93
2024/02/13 15:58:14;;;;;;;0.00;0.00;;;;;;;;;;4972911;28;20023;-93
2024/02/13 16:00:41;;;;;;;0.00;0.00;;;;;;;;;;4990265;28;20403;-93
2024/02/13 16:03:08;;;;;;;0.00;0.00;;;;;;;;;;4970998;28;20401;-93
2024/02/13 16:05:35;;;;;;;0.00;0.00;;;;;;;;;;4968612;28;20251;-92
2024/02/13 16:08:02;;;;;;;0.00;0.00;;;;;;;;;;4969899;28;20031;-93
2024/02/13 16:10:32;;;;;;;0.00;0.00;;;;;;;;;;4984527;28;20035;-92
2024/02/13 16:13:01;;;;;;;0.00;0.00;;;;;;;;;;4968799;28;20114;-91
2024/02/13 16:15:29;;;;;;;0.00;0.00;;;;;;;;;;4974158;28;20154;-91
2024/02/13 16:17:55;;;;;;;0.00;0.00;;;;;;;;;;4987585;28;20015;-92
2024/02/13 16:20:33;;;;;;;0.00;0.00;;;;;;;;;;4966306;28;20031;-92
2024/02/13 16:22:59;;;;;;;0.00;0.00;;;;;;;;;;4988896;28;20062;-92
2024/02/13 16:25:27;;;;;;;0.10;0.10;;;;;;;;;;4971486;28;20446;-92
2024/02/13 16:27:53;;;;;;;0.00;0.00;;;;;;;;;;4968776;28;20039;-92
2024/02/13 16:30:20;;;;;;;0.00;0.00;;;;;;;;;;4988119;28;20054;-92
2024/02/13 16:32:46;;;;;;;0.00;0.00;;;;;;;;;;4980959;28;20034;-92
2024/02/13 16:35:12;;;;;;;0.00;0.00;;;;;;;;;;4987134;28;20493;-94
2024/02/13 16:37:38;;;;;;;0.00;0.00;;;;;;;;;;4973791;28;20066;-93
2024/02/13 16:40:05;;;;;;;0.10;0.10;;;;;;;;;;4977191;28;20050;-92
2024/02/13 16:42:32;;;;;;;0.00;0.00;;;;;;;;;;4985955;28;20043;-92
2024/02/13 16:44:58;;;;;;;0.10;0.10;;;;;;;;;;4968260;28;20494;-94
2024/02/13 16:47:24;;;;;;;0.00;0.00;;;;;;;;;;4983845;28;20126;-93
2024/02/13 16:49:53;;;;;;;0.00;0.00;;;;;;;;;;4985704;28;20102;-92
2024/02/13 16:52:21;;;;;;;;;;;8.50;99.90;;;;;;4976418;28;20047;-91
2024/02/13 16:54:47;;;;;;;0.00;0.00;;;;;;;;;;4966917;28;19910;-93
2024/02/13 16:57:13;;;;;;;0.10;0.10;;;;;;;;;;4984141;28;20554;-92
2024/02/13 16:59:39;;;;;;;0.10;0.10;;;;;;;;;;4969553;28;20038;-93
2024/02/13 17:02:07;;;;;;;0.00;0.00;;;;;;;;;;4966566;28;20058;-94
2024/02/13 17:04:33;;;;;;;0.10;0.10;;;;;;;;;;4984851;28;20023;-93
2024/02/13 17:06:59;;;;;;;0.10;0.10;;;;;;;;;;4982554;28;20118;-92
2024/02/13 17:09:25;;;;;;;0.10;0.10;;;;;;;;;;4982519;28;20034;-92
2024/02/13 17:11:51;;;;;;;0.00;0.00;;;;;;;;;;4983113;28;20027;-93
2024/02/13 17:14:17;;;;;;;0.00;0.00;;;;;;;;;;4980474;28;20126;-93
2024/02/13 17:16:43;;;;;;;0.10;0.10;;;;;;;;;;4968004;28;20409;-92
2024/02/13 17:19:13;;;;;;;0.10;0.10;;;;;;;;;;4968072;28;20027;-92
2024/02/13 17:21:40;;;;;;;;;;;8.00;99.90;;;;;;4974171;28;20039;-91
2024/02/13 17:24:08;;;;;;;0.00;0.00;;;;;;;;;;4970052;28;19914;-93
2024/02/13 17:26:34;;;;;;;0.10;0.10;;;;;;;;;;4983711;28;20023;-92
2024/02/13 17:29:00;;;;;;;0.05;0.05;;;;;;;;;;4967563;28;20410;-92
2024/02/13 17:31:27;;;;;;;0.10;0.10;;;;;;;;;;4984175;28;20482;-93
2024/02/13 17:33:53;;;;;;;0.00;0.00;;;;;;;;;;4966768;28;20062;-93
2024/02/13 17:36:19;;;;;;;0.10;0.10;;;;;;;;;;4980458;28;20069;-92
2024/02/13 17:38:47;;;;;;;0.10;0.10;;;;;;;;;;4970587;28;20407;-93
2024/02/13 17:41:16;;;;;;;0.00;0.00;;;;;;;;;;4968207;28;20165;-91
2024/02/13 17:43:45;;;;;;;0.00;0.00;;;;;;;;;;4969206;28;20477;-92
2024/02/13 17:46:12;;;;;;;0.10;0.10;;;;;;;;;;4977340;28;20049;-91
2024/02/13 17:48:38;;;;;;;0.10;0.10;;;;;;;;;;4983785;28;20130;-93
2024/02/13 17:51:04;;;;;;;0.10;0.10;;;;;;;;;;4966763;28;20065;-92
2024/02/13 17:53:30;;;;;;;0.00;0.00;;;;;;;;;;4981268;28;20111;-93
2024/02/13 17:55:56;;;;;;;0.10;0.10;;;;;;;;;;4967515;28;20141;-92
2024/02/13 17:58:22;;;;;;;0.10;0.10;;;;;;;;;;4985423;28;20073;-92
2024/02/13 18:00:49;;;;;;;0.10;0.10;;;;;;;;;;4985883;28;20030;-92
2024/02/13 18:03:15;;;;;;;0.10;0.10;;;;;;;;;;4974534;28;20054;-93
2024/02/13 18:05:42;;;;;;;0.00;0.00;;;;;;;;;;4982922;28;20469;-92
2024/02/13 18:08:08;;;;;;;0.10;0.10;;;;;;;;;;4983088;28;20039;-93
2024/02/13 18:10:34;;;;;;;0.10;0.10;;;;;;;;;;4983486;28;20035;-92
2024/02/13 18:13:00;;;;;;;0.10;0.10;;;;;;;;;;4988306;28;20061;-92
2024/02/13 18:15:27;;;;;;;0.08;0.08;;;;;;;;;;4971792;28;20031;-93
2024/02/13 18:17:55;;;;;;;0.10;0.10;;;;;;;;;;4966456;28;20278;-92
2024/02/13 18:20:22;;;;;;;0.10;0.10;;;;;;;;;;4967808;28;20517;-93
2024/02/13 18:22:48;;;;;;;0.00;0.00;;;;;;;;;;4967743;28;20046;-92
2024/02/13 18:25:14;;;;;;;0.10;0.10;;;;;;;;;;4981789;28;20037;-93
2024/02/13 18:27:40;;;;;;;0.10;0.10;;;;;;;;;;4979320;28;20452;-92
2024/02/13 18:30:06;;;;;;;0.10;0.10;;;;;;;;;;4963635;28;20035;-92
2024/02/13 18:32:32;;;;;;;0.10;0.10;;;;;;;;;;4982169;28;20074;-92
2024/02/13 18:35:05;;;;;;;0.08;0.08;;;;;;;;;;4965060;28;20023;-92
2024/02/13 18:37:31;;;;;;;0.10;0.10;;;;;;;;;;4979251;28;20023;-92
2024/02/13 18:39:57;;;;;;;0.10;0.10;;;;;;;;;;4980657;28;20027;-93
2024/02/13 18:42:23;;;;;;;0.10;0.10;;;;;;;;;;4980331;28;20018;-94
2024/02/13 18:44:49;;;;;;;0.00;0.00;;;;;;;;;;5010408;28;20062;-94
2024/02/13 18:47:17;;;;;;;0.10;0.10;;;;;;;;;;4972688;28;20031;-93
2024/02/13 18:49:43;;;;;;;0.10;0.10;;;;;;;;;;4985063;28;20030;-92
2024/02/13 18:52:09;;;;;;;0.10;0.10;;;;;;;;;;4969811;28;20062;-93
2024/02/13 18:54:37;;;;;;;0.10;0.10;;;;;;;;;;4980578;28;20085;-91
2024/02/13 18:57:03;;;;;;;0.10;0.10;;;;;;;;;;4970936;28;20038;-92
2024/02/13 18:59:29;;;;;;;0.10;0.10;;;;;;;;;;4980313;28;20034;-93
2024/02/13 19:01:59;;;;;;;0.10;0.10;;;;;;;;;;4979865;28;20039;-93
2024/02/13 19:04:26;;;;;;;0.10;0.10;;;;;;;;;;4964984;28;20065;-93
2024/02/13 19:06:52;;;;;;;0.10;0.10;;;;;;;;;;4986020;28;20038;-92
2024/02/13 19:09:18;;;;;;;0.10;0.10;;;;;;;;;;4969296;28;20082;-92
2024/02/13 19:11:44;;;;;;;0.10;0.10;;;;;;;;;;4986211;28;20031;-92
2024/02/13 19:14:10;;;;;;;0.10;0.10;;;;;;;;;;4966583;28;20031;-92
2024/02/13 19:16:40;;;;;;;0.10;0.10;;;7.70;99.90;;;;;;4970504;28;20513;-92
2024/02/13 19:19:06;;;;;;;0.03;0.03;;;;;;;;;;4968583;28;20089;-92
2024/02/13 19:21:33;;;;;;;0.10;0.10;;;;;;;;;;4985319;28;20031;-92
2024/02/13 19:23:59;;;;;;;0.10;0.10;;;;;;;;;;4968136;28;20050;-89
2024/02/13 19:26:24;;;;;;;0.10;0.10;;;;;;;;;;4983842;28;20429;-92
2024/02/13 19:28:51;;;;;;;0.00;0.00;;;;;;;;;;4978103;28;20031;-93
2024/02/13 19:31:23;;;;;;;0.10;0.10;;;;;;;;;;4982729;28;20031;-92
2024/02/13 19:33:49;;;;;;;0.10;0.10;;;;;;;;;;4968353;28;20571;-93
2024/02/13 19:36:16;;;;;;;0.10;0.10;;;;;;;;;;4965798;28;20027;-93
2024/02/13 19:38:44;;;;;;;0.10;0.10;;;;;;;;;;4982465;28;20425;-92
2024/02/13 19:41:10;;;;;;;0.10;0.10;;;;;;;;;;4962019;28;20122;-93
2024/02/13 19:43:37;;;;;;;0.10;0.10;;;;;;;;;;4964400;28;20482;-93
2024/02/13 19:46:03;;;;;;;0.10;0.10;;;;;;;;;;4982744;28;20561;-92
2024/02/13 19:48:29;;;;;;;0.10;0.10;;;;;;;;;;4981072;28;20435;-91
2024/02/13 19:50:55;;;;;;;0.10;0.10;;;;;;;;;;4963849;28;20034;-92
2024/02/13 19:53:21;;;;;;;0.10;0.10;;;;;;;;;;4967371;28;22274;-93
2024/02/13 19:55:47;;;;;;;0.00;0.00;;;;;;;;;;4979032;28;20054;-92
2024/02/13 19:58:14;;;;;;;0.10;0.10;;;;;;;;;;4965872;28;20046;-92
2024/02/13 20:00:41;;;;;;;0.10;0.10;;;;;;;;;;4980309;28;20061;-93
2024/02/13 20:03:07;;;;;;;0.10;0.10;;;;;;;;;;4980507;28;20120;-92
2024/02/13 20:05:33;;;;;;;0.10;0.10;;;;;;;;;;4968463;28;20182;-92
2024/02/13 20:07:59;;;;;;;0.10;0.10;;;;;;;;;;4982712;28;21319;-92
2024/02/13 20:10:25;;;;;;;0.10;0.10;;;;;;;;;;4965735;28;20049;-92
2024/02/13 20:12:51;;;;;;;0.10;0.10;;;;;;;;;;4987854;28;20383;-93
2024/02/13 20:15:17;;;;;;;0.10;0.10;;;;;;;;;;4987303;28;20453;-92
2024/02/13 20:17:43;;;;;;;0.00;0.00;;;;;;;;;;4981632;28;20027;-93
2024/02/13 20:20:14;;;;;;;0.10;0.10;;;;;;;;;;4966369;28;20090;-93
2024/02/13 20:22:40;;;;;;;0.10;0.10;;;;;;;;;;4968983;28;20053;-92
2024/02/13 20:25:08;;;;;;;0.10;0.10;;;;;;;;;;4982220;28;20043;-93
2024/02/13 20:27:34;;;;;;;0.10;0.10;;;;;;;;;;4965052;28;20082;-92
2024/02/13 20:30:00;;;;;;;0.10;0.10;;;;;;;;;;4985453;28;20509;-91
2024/02/13 20:32:26;;;;;;;0.10;0.10;;;;;;;;;;4978958;28;20057;-91
2024/02/13 20:34:52;;;;;;;0.10;0.10;;;;;;;;;;4975823;28;20045;-92
2024/02/13 20:37:20;;;;;;;0.10;0.10;;;;;;;;;;4966191;28;20382;-92
2024/02/13 20:39:46;;;;;;;0.10;0.10;;;;;;;;;;4978623;28;20047;-90
2024/02/13 20:42:11;;;;;;;0.10;0.10;;;;;;;;;;4964047;28;20585;-92
2024/02/13 20:44:39;;;;;;;0.00;0.00;;;;;;;;;;4979021;28;20579;-93
2024/02/13 20:47:05;;;;;;;0.10;0.10;;;;;;;;;;4967589;28;20027;-93
2024/02/13 20:49:31;;;;;;;0.10;0.10;;;;;;;;;;4965156;28;20037;-94
2024/02/13 20:51:57;;;;;;;0.10;0.10;;;;;;;;;;4980176;28;20454;-92
2024/02/13 20:54:23;;;;;;;0.10;0.10;;;;;;;;;;4981098;28;20023;-92
2024/02/13 20:56:50;;;;;;;0.10;0.10;;;;;;;;;;4962168;28;20112;-93
2024/02/13 20:59:17;;;;;;;0.05;0.05;;;;;;;;;;4983327;28;20510;-93
2024/02/13 21:01:47;;;;;;;0.10;0.10;;;;;;;;;;4981450;28;20527;-92